Messwerte Porto Alegre

Temperatur

Temperatur
°C
1614279600 16.00 16.00 30
1614283200 17.00 17.00 29
1614286800 18.00 18.00 27
1614290400 19.00 19.00 25
1614294000 20.00 20.00 22
1614297600 21.00 21.00 21
1614301200 22.00 22.00 21
1614304800 23.00 23.00 20
1614308400 0.00 0.00 20
1614312000 1.00 1.00
1614315600 2.00 2.00
1614319200 3.00 3.00
1614322800 4.00 4.00
1614326400 5.00 5.00
1614330000 6.00 6.00 17
1614333600 7.00 7.00
1614337200 8.00 8.00 21
1614340800 9.00 9.00 24
1614344400 10.00 10.00 26
1614348000 11.00 11.00 28
1614351600 12.00 12.00 29
1614355200 13.00 13.00 30
1614358800 14.00 14.00 30
1614362400 15.00 15.00 29

Aktuellste Messwerte

Wettercharakter
Wetter: recht sonnig
Temperatur
29 °C
Feuchtigkeit
50 %
Wind
30 km/hWindrichtung: Südost
Luftdruck
1014 hPa
Messzeit: 26. Februar 2021, 15.00Datenquelle: METAR

Weitere Messstationen in der Nähe

Messstation Temperatur Entfernung
Porto Alegre 29 °C 4 km
Santa Maria 30 °C 241 km
Bagé 32 °C 314 km
Florianopolis 27 °C 368 km

Wind

Windrichtung Böen Mittelwind
° km/h km/h
1614279600 16.00 15.00 - 16.00 120° 25
1614283200 17.00 16.00 - 17.00 120° 30
1614286800 18.00 17.00 - 18.00 120° 30
1614290400 19.00 18.00 - 19.00 120° 25
1614294000 20.00 19.00 - 20.00 120° 20
1614297600 21.00 20.00 - 21.00 110° 20
1614301200 22.00 21.00 - 22.00 110° 20
1614304800 23.00 22.00 - 23.00 100° 15
1614308400 0.00 23.00 - 0.00 110° 20
1614312000 1.00 0.00 - 1.00
1614315600 2.00 1.00 - 2.00
1614319200 3.00 2.00 - 3.00
1614322800 4.00 3.00 - 4.00
1614326400 5.00 4.00 - 5.00
1614330000 6.00 5.00 - 6.00 80° 5
1614333600 7.00 6.00 - 7.00
1614337200 8.00 7.00 - 8.00 110° 10
1614340800 9.00 8.00 - 9.00 100° 10
1614344400 10.00 9.00 - 10.00 100° 20
1614348000 11.00 10.00 - 11.00 80° 15
1614351600 12.00 11.00 - 12.00 100° 20
1614355200 13.00 12.00 - 13.00 140° 20
1614358800 14.00 13.00 - 14.00 130° 25
1614362400 15.00 14.00 - 15.00 120° 30

Ihre Wetterstation

Fehlt Ihre Wetterstation auf unserem Portal?

Schreiben Sie an network@meteonews.ch

Klima

Wann ist es am wärmsten? Wann regnet es am wenigsten? Unsere Klimadaten geben Auskunft.